CPA961 YPAD-YSSY
Flight info
| Callsign | CPA961 |
|---|---|
| Flight time | N/A |
| Altitude | 19000 |
| Route | BENDO V255 WG W113 ODALE |
| Aircraft | A359/H-SDE2E3GHIJ3J4J5LM1ORWXY/LB1D1 |
Departure
| Time | 2025-09-08 04:44 |
|---|---|
| Airport | Adelaide International Airport (YPAD) |
Arrival
| Time | N/A |
|---|---|
| Airport | Sydney Kingsford Smith International Airport (YSSY) |
| Time | Latitude | Longitude | Altitude | Speed | Heading |
|---|---|---|---|---|---|
| 2025-09-08 04:15 | -34.93888 | 138.53897 | 32 ft | 0 kts | 320° |
| 2025-09-08 04:34 | -34.93887 | 138.53896 | 32 ft | 1 kts | 320° |
| 2025-09-08 04:34 | -34.93889 | 138.53899 | 32 ft | 3 kts | 320° |
| 2025-09-08 04:35 | -34.93862 | 138.53870 | 33 ft | 11 kts | 139° |
| 2025-09-08 04:39 | -34.93927 | 138.53980 | 32 ft | 12 kts | 88° |
| 2025-09-08 04:41 | -34.93966 | 138.54211 | 32 ft | 0 kts | 139° |
| 2025-09-08 04:42 | -34.93975 | 138.54219 | 32 ft | 10 kts | 139° |
| 2025-09-08 04:42 | -34.94117 | 138.54242 | 32 ft | 0 kts | 229° |
| 2025-09-08 04:43 | -34.94494 | 138.53698 | 32 ft | 118 kts | 230° |
| 2025-09-08 04:43 | -34.96030 | 138.51507 | 829 ft | 199 kts | 233° |
| 2025-09-08 04:44 | -34.98011 | 138.48608 | 2518 ft | 246 kts | 234° |
| 2025-09-08 04:44 | -35.01395 | 138.43746 | 5088 ft | 251 kts | 232° |
| 2025-09-08 04:45 | -35.04682 | 138.42088 | 7435 ft | 284 kts | 184° |
| 2025-09-08 04:45 | -35.08403 | 138.44487 | 9522 ft | 323 kts | 144° |
| 2025-09-08 04:46 | -35.09925 | 138.46580 | 10436 ft | 341 kts | 124° |
| 2025-09-08 04:46 | -35.10772 | 138.52519 | 11766 ft | 374 kts | 80° |
| 2025-09-08 04:47 | -35.10212 | 138.58920 | 13745 ft | 389 kts | 79° |
| 2025-09-08 04:47 | -35.09710 | 138.65618 | 15480 ft | 403 kts | 81° |
| 2025-09-08 04:48 | -35.09233 | 138.72549 | 17185 ft | 415 kts | 81° |
| 2025-09-08 04:48 | -35.08500 | 138.83353 | 19655 ft | 436 kts | 80° |
| 2025-09-08 04:49 | -35.07996 | 138.90867 | 21176 ft | 451 kts | 80° |
| 2025-09-08 04:49 | -35.07741 | 138.94712 | 21935 ft | 458 kts | 80° |
| 2025-09-08 04:50 | -35.07217 | 139.02587 | 23402 ft | 473 kts | 80° |
| 2025-09-08 04:50 | -35.06675 | 139.10708 | 24644 ft | 487 kts | 80° |
| 2025-09-08 04:51 | -35.06111 | 139.19058 | 25841 ft | 500 kts | 79° |
| 2025-09-08 04:53 | -35.03642 | 139.54599 | 30289 ft | 552 kts | 78° |
| 2025-09-08 04:55 | -35.00847 | 139.93193 | 33730 ft | 589 kts | 77° |
| 2025-09-08 04:57 | -34.97838 | 140.32967 | 37495 ft | 590 kts | 76° |
| 2025-09-08 04:59 | -34.97971 | 140.73236 | 40842 ft | 586 kts | 84° |
| 2025-09-08 05:01 | -34.98132 | 141.19452 | 41044 ft | 614 kts | 84° |
| 2025-09-08 05:03 | -34.98155 | 141.55932 | 41037 ft | 615 kts | 84° |
| 2025-09-08 05:05 | -34.98018 | 142.02891 | 41031 ft | 617 kts | 83° |
| 2025-09-08 05:07 | -34.97799 | 142.37842 | 41031 ft | 618 kts | 83° |